Time;durP1;ratioP1;P1;durP2;ratioP2;P2;SDS_P1;SDS_P2;PMS_P1;PMS_P2;Temp;Humidity;BMP_temperature;BMP_pressure;BME280_temperature;BME280_humidity;BME280_pressure;Samples;Min_cycle;Max_cycle;Signal;HPM_P1;HPM_P2
2023/09/25 00:00:34;;;;;;;3.55;2.35;;;;;;;;;;4926905;29;20038;-76
2023/09/25 00:03:00;;;;;;;3.60;2.35;;;;;;;;;;4926795;29;20039;-76
2023/09/25 00:05:26;;;;;;;5.57;2.75;;;;;;;;;;4925670;29;20118;-77
2023/09/25 00:07:51;;;;;;;5.38;2.88;;;;;;;;;;4932054;29;20167;-76
2023/09/25 00:10:17;;;;;;;5.50;3.65;;;;;;;;;;4929488;29;20036;-76
2023/09/25 00:12:42;;;;;;;5.25;3.55;;;;;;;;;;4931548;29;20031;-77
2023/09/25 00:15:08;;;;;;;5.05;3.13;;;;;;;;;;4925566;29;20040;-76
2023/09/25 00:17:33;;;;;;;4.85;2.72;;;;;;;;;;4926401;29;20032;-77
2023/09/25 00:19:59;;;;;;;3.72;2.72;;;;;;;;;;4929558;29;20046;-76
2023/09/25 00:22:24;;;;;;;3.92;2.58;;;;;;;;;;4930958;29;20042;-76
2023/09/25 00:24:50;;;;;;;4.43;2.97;;;;;;;;;;4929041;29;20079;-76
2023/09/25 00:27:15;;;;;;;3.78;2.20;;;;;;;;;;4933140;29;20507;-77
2023/09/25 00:29:40;;;;;;;3.97;2.70;;;;;;;;;;4932210;29;20032;-76
2023/09/25 00:32:05;;;;;;;5.10;3.42;;;;;;;;;;4925869;29;20020;-76
2023/09/25 00:34:31;;;;;;;4.07;2.30;;;;;;;;;;4936231;29;20500;-76
2023/09/25 00:36:56;;;;;;;4.22;2.47;;;;;;;;;;4934371;29;20036;-76
2023/09/25 00:39:21;;;;;;;5.38;2.63;;;;;;;;;;4932810;29;20093;-76
2023/09/25 00:41:47;;;;;;;3.67;2.35;;;;;;;;;;4930772;29;20485;-76
2023/09/25 00:44:12;;;;;;;4.03;2.40;;;;;;;;;;4930518;29;20127;-76
2023/09/25 00:46:37;;;;;;;4.57;2.67;;;;;;;;;;4928423;29;20028;-76
2023/09/25 00:49:02;;;;;;;4.40;2.97;;;;;;;;;;4933083;29;20054;-76
2023/09/25 00:51:28;;;;;;;4.15;2.88;;;;;;;;;;4934327;29;20028;-76
2023/09/25 00:53:54;;;;;;;3.58;2.08;;;;;;;;;;4931647;29;20098;-77
2023/09/25 00:56:19;;;;;;;4.50;2.60;;;;;;;;;;4932013;29;20115;-77
2023/09/25 00:58:45;;;;;;;3.35;1.70;;;;;;;;;;4930867;29;20412;-77
2023/09/25 01:01:11;;;;;;;3.58;2.45;;;;;;;;;;4929224;29;20393;-76
2023/09/25 01:03:36;;;;;;;5.65;2.70;;;;;;;;;;4934106;29;20035;-76
2023/09/25 01:06:04;;;;;;;4.03;2.70;;;;;;;;;;4926639;29;20028;-76
2023/09/25 01:08:30;;;;;;;4.38;2.70;;;;;;;;;;4930759;29;20078;-77
2023/09/25 01:10:55;;;;;;;3.95;2.58;;;;;;;;;;4930260;29;20031;-76
2023/09/25 01:13:20;;;;;;;5.78;2.92;;;;;;;;;;4926394;29;20035;-76
2023/09/25 01:15:45;;;;;;;3.45;2.40;;;;;;;;;;4929914;29;20425;-77
2023/09/25 01:18:11;;;;;;;2.85;1.88;;;;;;;;;;4927443;29;20045;-76
2023/09/25 01:20:36;;;;;;;3.58;2.50;;;;;;;;;;4929155;29;20043;-76
2023/09/25 01:23:02;;;;;;;3.97;2.50;;;;;;;;;;4921363;29;20055;-76
2023/09/25 01:25:27;;;;;;;5.00;2.47;;;;;;;;;;4931415;29;20059;-76
2023/09/25 01:27:52;;;;;;;3.60;2.10;;;;;;;;;;4925091;29;20032;-76
2023/09/25 01:30:18;;;;;;;3.38;2.40;;;;;;;;;;4926573;29;20028;-76
2023/09/25 01:32:44;;;;;;;4.32;2.58;;;;;;;;;;4923241;29;20024;-77
2023/09/25 01:35:13;;;;;;;3.90;2.38;;;;;;;;;;4921984;29;20040;-76
2023/09/25 01:37:38;;;;;;;4.28;2.78;;;;;;;;;;4921648;29;20171;-76
2023/09/25 01:40:17;;;;;;;4.05;2.50;;;;;;;;;;4918508;29;20106;-76
2023/09/25 01:42:46;;;;;;;3.95;2.60;;;;;;;;;;4931845;29;20031;-76
2023/09/25 01:45:13;;;;;;;4.85;3.10;;;;;;;;;;4924467;29;20051;-77
2023/09/25 01:47:40;;;;;;;4.70;2.97;;;;;;;;;;4926507;29;20397;-76
2023/09/25 01:50:08;;;;;;;5.50;3.45;;;;;;;;;;4923421;29;20047;-77
2023/09/25 01:52:33;;;;;;;5.43;3.33;;;;;;;;;;4920802;29;20028;-76
2023/09/25 01:54:59;;;;;;;5.47;3.85;;;;;;;;;;4916156;29;20028;-77
2023/09/25 01:57:24;;;;;;;5.53;3.67;;;;;;;;;;4926556;29;20028;-77
2023/09/25 01:59:49;;;;;;;6.10;4.03;;;;;;;;;;4926877;29;20123;-76
2023/09/25 02:02:14;;;;;;;5.40;3.10;;;;;;;;;;4923357;29;20051;-77
2023/09/25 02:04:39;;;;;;;5.22;2.67;;;;;;;;;;4925325;29;20082;-76
2023/09/25 02:07:05;;;;;;;4.22;2.72;;;;;;;;;;4917165;29;20024;-76
2023/09/25 02:09:30;;;;;;;4.72;2.95;;;;;;;;;;4930520;29;20028;-77
2023/09/25 02:11:55;;;;;;;4.68;3.00;;;;;;;;;;4934272;29;20063;-77
2023/09/25 02:14:21;;;;;;;4.00;2.63;;;;;;;;;;4922556;29;20024;-76
2023/09/25 02:16:46;;;;;;;5.82;3.17;;;;;;;;;;4905381;29;20135;-77
2023/09/25 02:19:11;;;;;;;5.20;3.38;;;;;;;;;;4925782;29;20036;-76
2023/09/25 02:21:37;;;;;;;6.53;3.90;;;;;;;;;;4923941;29;20396;-76
2023/09/25 02:24:02;;;;;;;5.55;3.60;;;;;;;;;;4926531;29;20043;-76
2023/09/25 02:26:27;;;;;;;5.25;3.88;;;;;;;;;;4932079;29;20119;-76
2023/09/25 02:28:52;;;;;;;7.20;4.60;;;;;;;;;;4933861;29;20023;-76
2023/09/25 02:31:18;;;;;;;8.60;4.07;;;;;;;;;;4928272;29;20039;-76
2023/09/25 02:33:44;;;;;;;129.32;11.00;;;;;;;;;;4929018;29;20027;-76
2023/09/25 02:36:10;;;;;;;29.30;4.78;;;;;;;;;;4927798;29;20560;-76
2023/09/25 02:38:35;;;;;;;15.32;4.15;;;;;;;;;;4931094;29;20140;-76
2023/09/25 02:41:01;;;;;;;15.13;3.17;;;;;;;;;;4932568;29;20054;-76
2023/09/25 02:43:26;;;;;;;42.05;4.78;;;;;;;;;;4931207;29;20064;-76
2023/09/25 02:45:52;;;;;;;6.22;3.38;;;;;;;;;;4928401;29;20031;-76
2023/09/25 02:48:17;;;;;;;5.00;3.25;;;;;;;;;;4927257;29;20029;-76
2023/09/25 02:50:42;;;;;;;4.57;2.90;;;;;;;;;;4926822;29;20459;-76
2023/09/25 02:53:08;;;;;;;5.15;3.10;;;;;;;;;;4925736;29;20445;-76
2023/09/25 02:55:34;;;;;;;6.57;3.03;;;;;;;;;;4925756;29;20060;-76
2023/09/25 02:57:59;;;;;;;4.75;3.03;;;;;;;;;;4927153;29;20020;-76
2023/09/25 03:00:26;;;;;;;4.60;3.15;;;;;;;;;;4930208;29;20043;-76
2023/09/25 03:02:51;;;;;;;3.78;2.58;;;;;;;;;;4923838;29;20042;-76
2023/09/25 03:05:16;;;;;;;4.28;2.75;;;;;;;;;;4924717;29;20028;-76
2023/09/25 03:07:42;;;;;;;4.10;2.80;;;;;;;;;;4927477;29;20491;-76
2023/09/25 03:10:08;;;;;;;3.85;2.50;;;;;;;;;;4924924;29;20087;-76
2023/09/25 03:12:33;;;;;;;3.22;2.10;;;;;;;;;;4922758;29;20511;-77
2023/09/25 03:14:58;;;;;;;7.78;4.55;;;;;;;;;;4917850;29;20027;-77
2023/09/25 03:17:24;;;;;;;4.45;2.92;;;;;;;;;;4921853;29;20040;-76
2023/09/25 03:19:52;;;;;;;4.22;2.45;;;;;;;;;;4919422;29;20044;-76
2023/09/25 03:22:18;;;;;;;4.10;2.70;;;;;;;;;;4923806;29;20055;-77
2023/09/25 03:24:43;;;;;;;4.28;3.00;;;;;;;;;;4921045;29;20438;-76
2023/09/25 03:27:08;;;;;;;4.25;3.00;;;;;;;;;;4921263;29;20075;-76
2023/09/25 03:29:33;;;;;;;5.82;4.13;;;;;;;;;;4924446;29;20480;-76
2023/09/25 03:31:58;;;;;;;5.90;4.43;;;;;;;;;;4914551;29;20032;-76
2023/09/25 03:34:26;;;;;;;4.55;3.50;;;;;;;;;;4920682;29;20492;-76
2023/09/25 03:36:51;;;;;;;4.75;3.63;;;;;;;;;;4921329;29;20095;-76
2023/09/25 03:39:18;;;;;;;6.53;4.63;;;;;;;;;;4922407;29;20051;-77
2023/09/25 03:41:43;;;;;;;4.80;3.33;;;;;;;;;;4932015;29;20436;-76
2023/09/25 03:44:08;;;;;;;4.03;2.75;;;;;;;;;;4927775;29;20051;-77
2023/09/25 03:46:33;;;;;;;6.07;4.20;;;;;;;;;;4926761;29;20027;-77
2023/09/25 03:49:05;;;;;;;5.65;3.92;;;;;;;;;;4921135;29;20557;-76
2023/09/25 03:51:30;;;;;;;5.38;3.88;;;;;;;;;;4924306;29;20114;-77
2023/09/25 03:53:56;;;;;;;5.38;4.30;;;;;;;;;;4926006;29;20551;-76
2023/09/25 03:56:21;;;;;;;6.07;4.70;;;;;;;;;;4923187;29;20036;-76
2023/09/25 03:58:46;;;;;;;6.50;4.25;;;;;;;;;;4923277;29;20028;-76
2023/09/25 04:01:11;;;;;;;7.60;4.53;;;;;;;;;;4921409;29;20512;-76
2023/09/25 04:03:36;;;;;;;6.03;4.53;;;;;;;;;;4926971;29;20051;-76
2023/09/25 04:06:02;;;;;;;5.32;4.00;;;;;;;;;;4920501;29;20044;-76
2023/09/25 04:08:27;;;;;;;5.22;4.03;;;;;;;;;;4922048;29;20027;-77
2023/09/25 04:10:52;;;;;;;4.80;3.45;;;;;;;;;;4921685;29;20039;-77
2023/09/25 04:13:21;;;;;;;5.63;3.75;;;;;;;;;;4919235;29;20489;-76
2023/09/25 04:15:46;;;;;;;6.20;3.47;;;;;;;;;;4921791;29;20011;-76
2023/09/25 04:18:12;;;;;;;6.15;3.83;;;;;;;;;;4921275;29;20539;-77
2023/09/25 04:20:38;;;;;;;6.10;3.15;;;;;;;;;;4923526;29;20400;-76
2023/09/25 04:23:03;;;;;;;5.20;3.28;;;;;;;;;;4921506;29;20039;-76
2023/09/25 04:25:29;;;;;;;5.30;3.60;;;;;;;;;;4917183;29;20060;-77
2023/09/25 04:27:55;;;;;;;6.25;3.42;;;;;;;;;;4919482;29;20024;-76
2023/09/25 04:30:20;;;;;;;5.07;3.17;;;;;;;;;;4928110;29;20400;-76
2023/09/25 04:32:47;;;;;;;6.18;3.80;;;;;;;;;;4922922;29;20044;-76
2023/09/25 04:35:13;;;;;;;6.25;4.10;;;;;;;;;;4920388;29;20055;-76
2023/09/25 04:37:38;;;;;;;4.93;3.25;;;;;;;;;;4920533;29;20404;-76
2023/09/25 04:40:15;;;;;;;4.80;3.38;;;;;;;;;;4931159;29;20036;-76
2023/09/25 04:42:41;;;;;;;4.78;3.70;;;;;;;;;;4927881;29;20462;-76
2023/09/25 04:45:12;;;;;;;4.80;2.60;;;;;;;;;;4931734;29;20032;-76
2023/09/25 04:47:37;;;;;;;4.43;2.88;;;;;;;;;;4931959;29;20028;-77
2023/09/25 04:50:02;;;;;;;8.57;3.38;;;;;;;;;;4931726;29;20027;-76
2023/09/25 04:52:28;;;;;;;7.30;2.95;;;;;;;;;;4927547;29;20123;-76
2023/09/25 04:54:53;;;;;;;7.47;3.58;;;;;;;;;;4927766;29;20039;-77
2023/09/25 04:57:19;;;;;;;5.00;3.70;;;;;;;;;;4922874;29;20028;-76
2023/09/25 04:59:44;;;;;;;5.03;4.15;;;;;;;;;;4922477;29;20642;-76
2023/09/25 05:02:10;;;;;;;5.00;3.67;;;;;;;;;;4923644;29;20176;-76
2023/09/25 05:04:36;;;;;;;8.27;6.05;;;;;;;;;;4924125;29;20404;-76
2023/09/25 05:07:01;;;;;;;6.03;4.25;;;;;;;;;;4921799;29;20043;-76
2023/09/25 05:09:26;;;;;;;6.10;4.72;;;;;;;;;;4929099;29;20027;-76
2023/09/25 05:11:52;;;;;;;5.50;3.65;;;;;;;;;;4920721;29;20496;-76
2023/09/25 05:14:17;;;;;;;4.80;2.78;;;;;;;;;;4929951;29;20043;-76
2023/09/25 05:16:42;;;;;;;6.68;2.60;;;;;;;;;;4922944;29;20677;-76
2023/09/25 05:19:07;;;;;;;7.82;3.00;;;;;;;;;;4920404;29;20029;-76
2023/09/25 05:21:32;;;;;;;16.55;4.30;;;;;;;;;;4922224;29;20047;-76
2023/09/25 05:23:57;;;;;;;4.70;2.45;;;;;;;;;;4929473;29;20409;-76
2023/09/25 05:26:23;;;;;;;5.28;3.17;;;;;;;;;;4929283;29;20405;-76
2023/09/25 05:28:48;;;;;;;4.07;2.90;;;;;;;;;;4926730;29;20052;-76
2023/09/25 05:31:13;;;;;;;5.63;3.25;;;;;;;;;;4924747;29;20024;-76
2023/09/25 05:33:39;;;;;;;4.72;2.33;;;;;;;;;;4927735;29;20487;-76
2023/09/25 05:36:04;;;;;;;3.78;2.13;;;;;;;;;;4922823;29;20032;-76
2023/09/25 05:38:29;;;;;;;3.65;2.45;;;;;;;;;;4924841;29;20413;-76
2023/09/25 05:40:55;;;;;;;3.17;2.00;;;;;;;;;;4927859;29;20032;-76
2023/09/25 05:43:20;;;;;;;5.38;2.70;;;;;;;;;;4931332;29;20036;-76
2023/09/25 05:45:45;;;;;;;5.82;4.05;;;;;;;;;;4928458;29;20027;-76
2023/09/25 05:48:10;;;;;;;5.47;3.17;;;;;;;;;;4928024;29;20115;-76
2023/09/25 05:50:36;;;;;;;4.70;3.70;;;;;;;;;;4929266;29;20039;-76
2023/09/25 05:53:03;;;;;;;5.68;3.42;;;;;;;;;;4928078;29;20031;-76
2023/09/25 05:55:28;;;;;;;4.00;2.75;;;;;;;;;;4930471;29;20067;-76
2023/09/25 05:57:53;;;;;;;4.90;2.40;;;;;;;;;;4925100;29;20114;-76
2023/09/25 06:00:19;;;;;;;6.75;2.38;;;;;;;;;;4929368;29;20091;-76
2023/09/25 06:02:44;;;;;;;5.20;3.70;;;;;;;;;;4929849;29;20031;-76
2023/09/25 06:05:12;;;;;;;5.03;3.17;;;;;;;;;;4930900;29;20036;-76
2023/09/25 06:07:37;;;;;;;6.00;4.57;;;;;;;;;;4931440;29;20034;-76
2023/09/25 06:10:04;;;;;;;7.50;5.43;;;;;;;;;;4923980;29;20150;-76
2023/09/25 06:12:29;;;;;;;5.80;3.53;;;;;;;;;;4922569;29;20528;-76
2023/09/25 06:14:54;;;;;;;4.97;3.35;;;;;;;;;;4918644;29;20115;-76
2023/09/25 06:17:19;;;;;;;4.45;3.30;;;;;;;;;;4926670;29;20118;-76
2023/09/25 06:19:45;;;;;;;4.35;2.95;;;;;;;;;;4926113;29;20040;-76
2023/09/25 06:22:10;;;;;;;10.23;4.10;;;;;;;;;;4926173;29;20088;-76
2023/09/25 06:24:36;;;;;;;6.18;4.18;;;;;;;;;;4923812;29;20102;-76
2023/09/25 06:27:01;;;;;;;6.22;3.90;;;;;;;;;;4922136;29;20028;-76
2023/09/25 06:29:26;;;;;;;5.60;4.03;;;;;;;;;;4926305;29;20135;-76
2023/09/25 06:31:51;;;;;;;6.78;3.30;;;;;;;;;;4917201;29;20036;-76
2023/09/25 06:34:17;;;;;;;8.35;3.67;;;;;;;;;;4925617;29;20039;-76
2023/09/25 06:36:42;;;;;;;5.18;3.20;;;;;;;;;;4924023;29;20039;-76
2023/09/25 06:39:09;;;;;;;5.72;4.10;;;;;;;;;;4927984;29;20067;-76
2023/09/25 06:41:34;;;;;;;6.40;4.75;;;;;;;;;;4922961;29;20649;-76
2023/09/25 06:44:00;;;;;;;6.53;4.03;;;;;;;;;;4925345;29;20024;-76
2023/09/25 06:46:25;;;;;;;5.78;4.50;;;;;;;;;;4920228;29;20394;-76
2023/09/25 06:48:50;;;;;;;5.13;3.50;;;;;;;;;;4930338;29;20035;-76
2023/09/25 06:51:16;;;;;;;4.85;3.15;;;;;;;;;;4924148;29;20032;-76
2023/09/25 06:53:41;;;;;;;5.45;3.97;;;;;;;;;;4921594;29;20055;-76
2023/09/25 06:56:06;;;;;;;5.00;3.42;;;;;;;;;;4918999;29;20122;-76
2023/09/25 06:58:32;;;;;;;7.07;4.47;;;;;;;;;;4924299;29;20027;-76
2023/09/25 07:00:57;;;;;;;6.72;4.50;;;;;;;;;;4919799;29;20064;-76
2023/09/25 07:03:22;;;;;;;5.68;3.90;;;;;;;;;;4924518;29;20044;-76
2023/09/25 07:05:48;;;;;;;6.65;4.50;;;;;;;;;;4922370;29;20039;-76
2023/09/25 07:08:14;;;;;;;7.10;3.80;;;;;;;;;;4922176;29;20039;-76
2023/09/25 07:10:43;;;;;;;6.22;4.28;;;;;;;;;;4920675;29;20411;-76
2023/09/25 07:13:08;;;;;;;5.35;4.05;;;;;;;;;;4916946;29;20038;-76
2023/09/25 07:15:34;;;;;;;7.20;5.00;;;;;;;;;;4919233;29;20023;-76
2023/09/25 07:17:59;;;;;;;5.88;4.50;;;;;;;;;;4921057;29;20291;-76
2023/09/25 07:20:25;;;;;;;6.50;5.05;;;;;;;;;;4924280;29;20032;-76
2023/09/25 07:22:51;;;;;;;8.57;5.43;;;;;;;;;;4924270;29;20043;-76
2023/09/25 07:25:16;;;;;;;6.00;4.93;;;;;;;;;;4923048;29;20043;-76
2023/09/25 07:27:41;;;;;;;7.20;4.80;;;;;;;;;;4926695;29;20023;-76
2023/09/25 07:30:08;;;;;;;8.32;6.03;;;;;;;;;;4922668;29;20074;-76
2023/09/25 07:32:33;;;;;;;8.20;6.72;;;;;;;;;;4925544;29;20028;-76
2023/09/25 07:34:59;;;;;;;12.32;9.50;;;;;;;;;;4924435;29;20416;-76
2023/09/25 07:37:24;;;;;;;10.77;8.93;;;;;;;;;;4922090;29;20028;-76
2023/09/25 07:39:49;;;;;;;8.63;7.68;;;;;;;;;;4925120;29;20036;-76
2023/09/25 07:42:15;;;;;;;7.85;6.80;;;;;;;;;;4927147;29;20085;-76
2023/09/25 07:44:42;;;;;;;7.90;6.45;;;;;;;;;;4922776;29;20051;-76
2023/09/25 07:47:07;;;;;;;6.50;5.40;;;;;;;;;;4924772;29;20039;-76
2023/09/25 07:49:40;;;;;;;8.45;6.00;;;;;;;;;;4923531;29;20088;-76
2023/09/25 07:52:15;;;;;;;6.90;5.55;;;;;;;;;;4925687;29;20031;-76
2023/09/25 07:54:41;;;;;;;7.70;6.55;;;;;;;;;;4926353;29;20047;-76
2023/09/25 07:57:07;;;;;;;6.78;5.90;;;;;;;;;;4924624;29;20516;-76
2023/09/25 07:59:32;;;;;;;8.10;5.70;;;;;;;;;;4923544;29;20150;-77
2023/09/25 08:01:58;;;;;;;7.05;5.07;;;;;;;;;;4917376;29;20036;-76
2023/09/25 08:04:23;;;;;;;6.30;4.82;;;;;;;;;;4927013;29;20088;-76
2023/09/25 08:06:48;;;;;;;8.15;5.10;;;;;;;;;;4923421;29;20063;-77
2023/09/25 08:09:13;;;;;;;5.77;4.47;;;;;;;;;;4922598;29;20032;-76
2023/09/25 08:11:39;;;;;;;6.55;5.40;;;;;;;;;;4925751;29;20949;-76
2023/09/25 08:14:04;;;;;;;7.05;4.85;;;;;;;;;;4923441;29;20396;-76
2023/09/25 08:16:29;;;;;;;6.28;4.43;;;;;;;;;;4924768;29;20128;-76
2023/09/25 08:18:55;;;;;;;7.53;5.77;;;;;;;;;;4921013;29;20492;-76
2023/09/25 08:21:20;;;;;;;6.53;4.57;;;;;;;;;;4917618;29;20300;-76
2023/09/25 08:23:45;;;;;;;6.25;4.22;;;;;;;;;;4916427;29;20501;-76
2023/09/25 08:26:10;;;;;;;8.47;5.13;;;;;;;;;;4922874;29;20032;-77
2023/09/25 08:28:36;;;;;;;6.67;4.77;;;;;;;;;;4927664;28;20748;-77
2023/09/25 08:31:01;;;;;;;5.28;4.30;;;;;;;;;;4917855;29;20277;-76
2023/09/25 08:33:26;;;;;;;5.75;4.30;;;;;;;;;;4918878;29;20036;-76
2023/09/25 08:35:52;;;;;;;5.50;4.00;;;;;;;;;;4924782;29;20059;-76
2023/09/25 08:38:17;;;;;;;4.10;3.30;;;;;;;;;;4924872;29;20306;-76
2023/09/25 08:40:44;;;;;;;5.57;4.22;;;;;;;;;;4924060;29;20040;-76
2023/09/25 08:43:10;;;;;;;4.78;3.58;;;;;;;;;;4923539;29;20539;-77
2023/09/25 08:45:36;;;;;;;6.35;3.85;;;;;;;;;;4920538;29;20037;-77
2023/09/25 08:48:01;;;;;;;6.05;4.78;;;;;;;;;;4920694;29;20028;-76
2023/09/25 08:50:26;;;;;;;6.57;4.82;;;;;;;;;;4922586;29;20040;-77
2023/09/25 08:52:52;;;;;;;6.15;4.68;;;;;;;;;;4921659;29;20036;-76
2023/09/25 08:55:17;;;;;;;5.10;3.92;;;;;;;;;;4927411;29;20038;-76
2023/09/25 08:57:42;;;;;;;5.32;3.63;;;;;;;;;;4929911;29;20039;-77
2023/09/25 09:00:15;;;;;;;5.45;3.25;;;;;;;;;;4926654;29;20128;-76
2023/09/25 09:02:40;;;;;;;7.47;4.32;;;;;;;;;;4922403;29;20039;-76
2023/09/25 09:05:06;;;;;;;4.85;3.17;;;;;;;;;;4918835;29;20048;-77
2023/09/25 09:07:31;;;;;;;4.80;3.50;;;;;;;;;;4924903;29;20154;-76
2023/09/25 09:09:57;;;;;;;7.20;4.07;;;;;;;;;;4924624;29;20055;-76
2023/09/25 09:12:22;;;;;;;7.13;4.45;;;;;;;;;;4925237;29;20610;-76
2023/09/25 09:14:48;;;;;;;7.83;4.13;;;;;;;;;;4921587;29;20039;-77
2023/09/25 09:17:13;;;;;;;12.85;4.72;;;;;;;;;;4920261;29;20292;-77
2023/09/25 09:19:39;;;;;;;6.07;3.75;;;;;;;;;;4926631;29;20765;-77
2023/09/25 09:22:05;;;;;;;5.38;3.00;;;;;;;;;;4928502;29;20440;-76
2023/09/25 09:24:36;;;;;;;4.90;3.03;;;;;;;;;;4924637;29;20094;-76
2023/09/25 09:27:05;;;;;;;5.97;3.50;;;;;;;;;;4926692;29;20036;-76
2023/09/25 09:29:33;;;;;;;5.78;3.28;;;;;;;;;;4925979;29;20051;-77
2023/09/25 09:31:58;;;;;;;5.22;3.72;;;;;;;;;;4924852;29;20032;-77
2023/09/25 09:34:24;;;;;;;8.32;6.07;;;;;;;;;;4924218;29;20036;-76
2023/09/25 09:36:52;;;;;;;6.55;4.18;;;;;;;;;;4924624;29;20039;-77
2023/09/25 09:39:22;;;;;;;5.63;4.05;;;;;;;;;;4923524;29;20039;-76
2023/09/25 09:41:49;;;;;;;5.13;4.13;;;;;;;;;;4926532;29;20067;-76
2023/09/25 09:44:15;;;;;;;5.28;3.40;;;;;;;;;;4925267;29;20031;-77
2023/09/25 09:46:41;;;;;;;6.75;3.25;;;;;;;;;;4933567;29;20396;-76
2023/09/25 09:49:08;;;;;;;5.93;3.03;;;;;;;;;;4926773;29;20585;-76
2023/09/25 09:51:34;;;;;;;4.70;3.00;;;;;;;;;;4927195;29;20032;-77
2023/09/25 09:54:03;;;;;;;7.80;2.90;;;;;;;;;;4926124;29;20052;-77
2023/09/25 09:56:28;;;;;;;7.82;4.65;;;;;;;;;;4925711;29;20092;-76
2023/09/25 09:58:54;;;;;;;4.78;3.53;;;;;;;;;;4924997;29;20036;-77
2023/09/25 10:01:20;;;;;;;4.95;3.28;;;;;;;;;;4918613;29;20032;-79
2023/09/25 10:03:46;;;;;;;5.78;3.55;;;;;;;;;;4928929;29;20083;-76
2023/09/25 10:06:12;;;;;;;5.20;2.72;;;;;;;;;;4928915;29;20036;-77
2023/09/25 10:08:37;;;;;;;5.53;3.30;;;;;;;;;;4926807;29;20028;-77
2023/09/25 10:11:23;;;;;;;8.97;3.33;;;;;;;;;;4926002;29;20494;-76
2023/09/25 10:13:48;;;;;;;6.05;4.45;;;;;;;;;;4922227;29;20295;-77
2023/09/25 10:16:15;;;;;;;6.53;4.97;;;;;;;;;;4916883;29;20044;-77
2023/09/25 10:18:41;;;;;;;7.28;4.70;;;;;;;;;;4934719;29;20039;-77
2023/09/25 10:21:10;;;;;;;4.65;3.03;;;;;;;;;;4929671;29;20138;-77
2023/09/25 10:23:39;;;;;;;5.63;3.08;;;;;;;;;;4921994;29;20027;-77
2023/09/25 10:26:09;;;;;;;7.07;3.17;;;;;;;;;;4920592;29;20032;-77
2023/09/25 10:28:38;;;;;;;8.48;3.90;;;;;;;;;;4927238;29;20027;-78
2023/09/25 10:31:05;;;;;;;5.90;3.40;;;;;;;;;;4926854;29;20032;-76
2023/09/25 10:33:35;;;;;;;4.05;2.35;;;;;;;;;;4934086;29;20063;-76
2023/09/25 10:36:04;;;;;;;4.35;2.17;;;;;;;;;;4931026;29;20595;-76
2023/09/25 10:38:32;;;;;;;3.42;1.90;;;;;;;;;;4933603;29;20035;-77
2023/09/25 10:41:04;;;;;;;3.75;1.50;;;;;;;;;;4923202;29;20036;-76
2023/09/25 10:43:30;;;;;;;4.70;2.28;;;;;;;;;;4923938;29;20069;-77
2023/09/25 10:45:55;;;;;;;2.47;1.42;;;;;;;;;;4927900;29;20170;-77
2023/09/25 10:48:24;;;;;;;5.43;3.10;;;;;;;;;;4929091;29;20079;-77
2023/09/25 10:50:49;;;;;;;3.67;2.50;;;;;;;;;;4927211;29;20028;-77
2023/09/25 10:53:14;;;;;;;7.10;3.07;;;;;;;;;;4921976;29;20091;-77
2023/09/25 10:55:40;;;;;;;4.28;1.55;;;;;;;;;;4919658;29;20288;-77
2023/09/25 10:58:06;;;;;;;5.05;2.13;;;;;;;;;;4919854;29;20032;-77
2023/09/25 11:00:34;;;;;;;4.97;1.90;;;;;;;;;;4925062;29;20404;-77
2023/09/25 11:03:00;;;;;;;2.45;1.50;;;;;;;;;;4926763;29;20036;-76
2023/09/25 11:05:26;;;;;;;3.40;1.63;;;;;;;;;;4927091;29;20039;-77
2023/09/25 11:07:51;;;;;;;5.10;2.05;;;;;;;;;;4932496;29;20527;-77
2023/09/25 11:10:17;;;;;;;4.32;2.20;;;;;;;;;;4919396;29;20051;-77
2023/09/25 11:12:43;;;;;;;3.53;2.17;;;;;;;;;;4926324;29;20031;-76
2023/09/25 11:15:11;;;;;;;3.38;1.70;;;;;;;;;;4923220;29;20515;-77
2023/09/25 11:17:38;;;;;;;4.10;1.75;;;;;;;;;;4923757;29;20036;-76
2023/09/25 11:20:08;;;;;;;4.13;2.25;;;;;;;;;;4925613;29;20485;-76
2023/09/25 11:22:36;;;;;;;3.60;2.22;;;;;;;;;;4925789;29;20512;-76
2023/09/25 11:25:04;;;;;;;5.32;2.15;;;;;;;;;;4924327;29;20072;-76
2023/09/25 11:27:29;;;;;;;5.05;2.17;;;;;;;;;;4925575;29;20027;-77
2023/09/25 11:29:55;;;;;;;2.90;1.80;;;;;;;;;;4929540;29;20480;-76
2023/09/25 11:32:21;;;;;;;3.17;1.83;;;;;;;;;;4923784;29;20032;-76
2023/09/25 11:34:47;;;;;;;2.50;1.58;;;;;;;;;;4925158;29;20161;-76
2023/09/25 11:37:18;;;;;;;2.80;1.50;;;;;;;;;;4920363;29;20051;-76
2023/09/25 11:39:43;;;;;;;2.15;1.38;;;;;;;;;;4925816;29;20404;-76
2023/09/25 11:42:08;;;;;;;5.95;2.60;;;;;;;;;;4922796;29;20130;-76
2023/09/25 11:44:34;;;;;;;2.55;1.05;;;;;;;;;;4924342;29;21195;-77
2023/09/25 11:46:59;;;;;;;2.83;1.60;;;;;;;;;;4920658;29;20051;-77
2023/09/25 11:49:24;;;;;;;3.35;1.60;;;;;;;;;;4919771;29;20294;-77
2023/09/25 11:51:50;;;;;;;3.10;1.70;;;;;;;;;;4915783;29;20035;-77
2023/09/25 11:54:15;;;;;;;4.15;2.08;;;;;;;;;;4921679;29;20032;-77
2023/09/25 11:56:41;;;;;;;3.33;1.80;;;;;;;;;;4922380;29;20036;-77
2023/09/25 11:59:06;;;;;;;2.67;1.50;;;;;;;;;;4929201;29;20031;-77
2023/09/25 12:01:31;;;;;;;2.08;1.15;;;;;;;;;;4923386;29;20365;-77
2023/09/25 12:03:57;;;;;;;2.63;1.60;;;;;;;;;;4916615;29;20036;-77
2023/09/25 12:06:25;;;;;;;3.17;1.30;;;;;;;;;;4918676;29;20127;-77
2023/09/25 12:08:50;;;;;;;2.20;1.10;;;;;;;;;;4924626;29;20656;-77
2023/09/25 12:11:16;;;;;;;2.10;1.30;;;;;;;;;;4922762;29;20036;-77
2023/09/25 12:13:41;;;;;;;3.28;1.00;;;;;;;;;;4921135;29;20141;-77
2023/09/25 12:16:06;;;;;;;2.23;1.20;;;;;;;;;;4917122;29;20039;-77
2023/09/25 12:18:32;;;;;;;1.92;0.90;;;;;;;;;;4925170;29;20711;-77
2023/09/25 12:20:57;;;;;;;2.40;1.02;;;;;;;;;;4926026;29;20035;-77
2023/09/25 12:23:22;;;;;;;2.78;1.45;;;;;;;;;;4925354;29;20119;-77
2023/09/25 12:25:47;;;;;;;4.33;1.50;;;;;;;;;;4925882;29;20047;-77
2023/09/25 12:28:12;;;;;;;2.60;1.17;;;;;;;;;;4927850;29;20972;-77
2023/09/25 12:30:38;;;;;;;2.20;1.40;;;;;;;;;;4922913;29;20314;-77
2023/09/25 12:33:03;;;;;;;2.47;1.40;;;;;;;;;;4927236;29;20034;-77
2023/09/25 12:35:29;;;;;;;2.03;1.15;;;;;;;;;;4920390;29;20326;-77
2023/09/25 12:37:55;;;;;;;3.17;1.40;;;;;;;;;;4929152;29;20527;-77
2023/09/25 12:40:20;;;;;;;3.10;1.70;;;;;;;;;;4926790;29;20032;-77
2023/09/25 12:42:46;;;;;;;3.10;1.58;;;;;;;;;;4928758;29;20019;-77
2023/09/25 12:45:11;;;;;;;2.92;1.10;;;;;;;;;;4920976;29;20032;-77
2023/09/25 12:47:36;;;;;;;2.07;0.80;;;;;;;;;;4927274;29;20028;-77
2023/09/25 12:50:02;;;;;;;2.58;1.00;;;;;;;;;;4926534;29;20115;-77
2023/09/25 12:52:27;;;;;;;3.85;0.90;;;;;;;;;;4924304;29;20546;-77
2023/09/25 12:54:53;;;;;;;2.25;1.30;;;;;;;;;;4925206;29;20039;-77
2023/09/25 12:57:18;;;;;;;3.67;1.30;;;;;;;;;;4931641;29;20039;-77
2023/09/25 12:59:44;;;;;;;2.88;1.50;;;;;;;;;;4930910;29;20118;-77
2023/09/25 13:02:09;;;;;;;3.97;1.08;;;;;;;;;;4926238;29;20520;-77
2023/09/25 13:04:34;;;;;;;3.65;1.45;;;;;;;;;;4927251;29;20505;-77
2023/09/25 13:06:59;;;;;;;2.95;0.85;;;;;;;;;;4929830;29;20043;-77
2023/09/25 13:09:25;;;;;;;2.70;1.03;;;;;;;;;;4928975;29;20381;-77
2023/09/25 13:11:50;;;;;;;2.25;1.00;;;;;;;;;;4921286;29;20035;-77
2023/09/25 13:14:15;;;;;;;4.45;1.30;;;;;;;;;;4919592;29;20177;-77
2023/09/25 13:16:41;;;;;;;2.50;1.45;;;;;;;;;;4918493;29;20040;-77
2023/09/25 13:19:06;;;;;;;3.13;0.85;;;;;;;;;;4928496;29;20106;-77
2023/09/25 13:21:32;;;;;;;2.33;1.08;;;;;;;;;;4926982;29;20032;-77
2023/09/25 13:23:57;;;;;;;2.23;1.07;;;;;;;;;;4928308;29;20132;-77
2023/09/25 13:26:24;;;;;;;2.33;1.40;;;;;;;;;;4923471;29;20437;-74
2023/09/25 13:28:50;;;;;;;3.47;1.83;;;;;;;;;;4930031;29;20307;-77
2023/09/25 13:31:15;;;;;;;3.58;1.30;;;;;;;;;;4925602;29;20065;-77
2023/09/25 13:33:40;;;;;;;3.17;1.50;;;;;;;;;;4924164;29;20024;-77
2023/09/25 13:36:06;;;;;;;4.72;2.10;;;;;;;;;;4927081;29;20027;-77
2023/09/25 13:38:31;;;;;;;3.83;1.50;;;;;;;;;;4923938;29;20374;-76
2023/09/25 13:40:56;;;;;;;4.60;2.60;;;;;;;;;;4919420;29;20047;-77
2023/09/25 13:43:21;;;;;;;2.80;1.60;;;;;;;;;;4926364;29;20036;-77
2023/09/25 13:45:47;;;;;;;2.07;1.00;;;;;;;;;;4927283;29;20038;-77
2023/09/25 13:48:12;;;;;;;1.53;0.90;;;;;;;;;;4927923;29;20287;-77
2023/09/25 13:50:37;;;;;;;3.17;1.17;;;;;;;;;;4928479;29;20275;-77
2023/09/25 13:53:03;;;;;;;3.20;1.60;;;;;;;;;;4922128;29;20115;-77
2023/09/25 13:55:28;;;;;;;3.13;1.42;;;;;;;;;;4919685;29;20112;-76
2023/09/25 13:57:54;;;;;;;3.30;1.40;;;;;;;;;;4920943;29;20110;-76
2023/09/25 14:00:19;;;;;;;3.92;2.22;;;;;;;;;;4926136;29;20036;-77
2023/09/25 14:02:44;;;;;;;2.20;1.40;;;;;;;;;;4924872;29;20034;-77
2023/09/25 14:05:11;;;;;;;3.00;1.48;;;;;;;;;;4924873;29;20507;-77
2023/09/25 14:07:36;;;;;;;3.72;1.20;;;;;;;;;;4921173;29;20036;-77
2023/09/25 14:10:02;;;;;;;2.03;1.20;;;;;;;;;;4918347;29;20111;-77
2023/09/25 14:12:27;;;;;;;3.37;1.30;;;;;;;;;;4917151;29;20032;-77
2023/09/25 14:14:53;;;;;;;5.90;1.50;;;;;;;;;;4927829;29;20282;-75
2023/09/25 14:17:19;;;;;;;5.47;1.10;;;;;;;;;;4927973;29;20148;-77
2023/09/25 14:19:45;;;;;;;1.92;1.10;;;;;;;;;;4926070;29;20515;-77
2023/09/25 14:22:10;;;;;;;3.72;1.40;;;;;;;;;;4920046;29;20044;-77
2023/09/25 14:24:36;;;;;;;2.50;1.15;;;;;;;;;;4926102;29;20127;-77
2023/09/25 14:27:01;;;;;;;2.13;1.20;;;;;;;;;;4931267;29;20530;-77
2023/09/25 14:29:26;;;;;;;3.40;2.20;;;;;;;;;;4926690;29;20072;-77
2023/09/25 14:31:52;;;;;;;3.92;1.85;;;;;;;;;;4926269;29;20046;-77
2023/09/25 14:34:17;;;;;;;4.65;1.90;;;;;;;;;;4930122;29;20066;-77